createdAt,value
2023-04-16T00:01:26.124Z,100.00
2023-04-16T00:03:52.778Z,100.00
2023-04-16T00:06:19.542Z,100.00
2023-04-16T00:08:46.056Z,100.00
2023-04-16T00:11:12.669Z,100.00
2023-04-16T00:13:39.123Z,100.00
2023-04-16T00:16:05.977Z,100.00
2023-04-16T00:18:32.453Z,100.00
2023-04-16T00:20:59.579Z,100.00
2023-04-16T00:23:26.097Z,100.00
2023-04-16T00:25:53.620Z,100.00
2023-04-16T00:28:20.199Z,100.00
2023-04-16T00:30:46.728Z,100.00
2023-04-16T00:33:13.282Z,100.00
2023-04-16T00:35:39.932Z,100.00
2023-04-16T00:38:06.469Z,100.00
2023-04-16T00:40:33.652Z,100.00
2023-04-16T00:43:00.164Z,100.00
2023-04-16T00:45:27.051Z,100.00
2023-04-16T00:47:53.789Z,100.00
2023-04-16T00:50:20.484Z,100.00
2023-04-16T00:52:48.407Z,100.00
2023-04-16T00:55:17.598Z,100.00
2023-04-16T00:57:45.026Z,100.00
2023-04-16T01:00:12.741Z,100.00
2023-04-16T01:02:39.850Z,100.00
2023-04-16T01:05:06.727Z,100.00
2023-04-16T01:07:33.219Z,100.00
2023-04-16T01:09:59.722Z,100.00
2023-04-16T01:12:26.321Z,100.00
2023-04-16T01:14:53.122Z,100.00
2023-04-16T01:17:19.616Z,100.00
2023-04-16T01:19:46.162Z,100.00
2023-04-16T01:22:12.725Z,100.00
2023-04-16T01:24:40.437Z,100.00
2023-04-16T01:27:09.954Z,100.00
2023-04-16T01:29:36.536Z,100.00
2023-04-16T01:32:03.261Z,100.00
2023-04-16T01:34:35.837Z,100.00
2023-04-16T01:37:03.687Z,100.00
2023-04-16T01:39:30.413Z,100.00
2023-04-16T01:41:57.621Z,100.00
2023-04-16T01:44:24.096Z,100.00
2023-04-16T01:46:50.744Z,100.00
2023-04-16T01:49:17.498Z,100.00
2023-04-16T01:51:43.947Z,100.00
2023-04-16T01:54:10.500Z,100.00
2023-04-16T01:56:37.054Z,100.00
2023-04-16T01:59:03.582Z,100.00
2023-04-16T02:01:36.271Z,100.00
2023-04-16T02:04:03.754Z,100.00
2023-04-16T02:06:31.578Z,100.00
2023-04-16T02:08:58.085Z,100.00
2023-04-16T02:11:26.490Z,100.00
2023-04-16T02:13:53.764Z,100.00
2023-04-16T02:16:20.652Z,100.00
2023-04-16T02:18:52.913Z,100.00
2023-04-16T02:21:21.541Z,100.00
2023-04-16T02:23:51.479Z,100.00
2023-04-16T02:26:21.328Z,100.00
2023-04-16T02:28:49.098Z,100.00
2023-04-16T02:31:19.387Z,100.00
2023-04-16T02:33:47.474Z,100.00
2023-04-16T02:36:13.879Z,100.00
2023-04-16T02:38:40.311Z,100.00
2023-04-16T02:41:07.315Z,100.00
2023-04-16T02:43:34.157Z,100.00
2023-04-16T02:46:01.681Z,100.00
2023-04-16T02:48:28.349Z,100.00
2023-04-16T02:50:54.888Z,100.00
2023-04-16T02:53:21.457Z,100.00
2023-04-16T02:55:55.517Z,100.00
2023-04-16T02:58:24.135Z,100.00
2023-04-16T03:00:51.726Z,100.00
2023-04-16T03:03:18.625Z,100.00
2023-04-16T03:05:45.447Z,100.00
2023-04-16T03:08:11.884Z,100.00
2023-04-16T03:10:38.316Z,100.00
2023-04-16T03:13:05.150Z,100.00
2023-04-16T03:15:31.801Z,100.00
2023-04-16T03:17:58.633Z,100.00
2023-04-16T03:20:25.430Z,100.00
2023-04-16T03:22:53.069Z,100.00
2023-04-16T03:25:19.646Z,100.00
2023-04-16T03:27:46.289Z,100.00
2023-04-16T03:30:14.815Z,100.00
2023-04-16T03:32:41.618Z,100.00
2023-04-16T03:35:09.029Z,100.00
2023-04-16T03:37:37.158Z,100.00
2023-04-16T03:40:05.806Z,100.00
2023-04-16T03:42:32.463Z,100.00
2023-04-16T03:44:59.344Z,100.00
2023-04-16T03:47:26.352Z,100.00
2023-04-16T03:49:56.466Z,100.00
2023-04-16T03:52:22.890Z,100.00
2023-04-16T03:54:49.342Z,100.00
2023-04-16T03:57:25.878Z,100.00
2023-04-16T03:59:56.290Z,100.00
2023-04-16T04:02:24.839Z,100.00
2023-04-16T04:04:51.593Z,100.00
2023-04-16T04:07:18.075Z,100.00
2023-04-16T04:09:44.607Z,100.00
2023-04-16T04:12:11.118Z,100.00
2023-04-16T04:14:40.374Z,100.00
2023-04-16T04:17:08.709Z,100.00
2023-04-16T04:19:35.375Z,100.00
2023-04-16T04:22:03.338Z,100.00
2023-04-16T04:24:29.859Z,100.00
2023-04-16T04:26:57.493Z,100.00
2023-04-16T04:29:27.258Z,100.00
2023-04-16T04:31:55.124Z,100.00
2023-04-16T04:34:23.034Z,100.00
2023-04-16T04:36:49.555Z,100.00
2023-04-16T04:39:16.311Z,100.00
2023-04-16T04:41:43.597Z,100.00
2023-04-16T04:44:10.069Z,100.00
2023-04-16T04:46:36.599Z,100.00
2023-04-16T04:49:03.223Z,100.00
2023-04-16T04:51:31.769Z,100.00
2023-04-16T04:53:58.424Z,100.00
2023-04-16T04:56:24.840Z,100.00
2023-04-16T04:58:51.531Z,100.00
2023-04-16T05:01:19.753Z,100.00
2023-04-16T05:03:46.394Z,100.00
2023-04-16T05:06:13.065Z,100.00
2023-04-16T05:08:39.463Z,100.00
2023-04-16T05:11:05.992Z,100.00
2023-04-16T05:13:32.462Z,100.00
2023-04-16T05:15:59.843Z,100.00
2023-04-16T05:18:26.652Z,100.00
2023-04-16T05:20:53.210Z,100.00
2023-04-16T05:23:19.666Z,100.00
2023-04-16T05:25:46.107Z,100.00
2023-04-16T05:28:12.553Z,100.00
2023-04-16T05:30:39.062Z,100.00
2023-04-16T05:33:05.781Z,100.00
2023-04-16T05:35:32.275Z,100.00
2023-04-16T05:37:58.791Z,100.00
2023-04-16T05:40:25.285Z,100.00
2023-04-16T05:42:51.763Z,100.00
2023-04-16T05:45:18.162Z,100.00
2023-04-16T05:47:44.681Z,100.00
2023-04-16T05:50:11.259Z,100.00
2023-04-16T05:52:38.339Z,100.00
2023-04-16T05:55:05.812Z,100.00
2023-04-16T05:57:33.286Z,100.00
2023-04-16T05:59:59.732Z,100.00
2023-04-16T06:02:26.383Z,100.00
2023-04-16T06:04:52.926Z,100.00
2023-04-16T06:07:19.315Z,100.00
2023-04-16T06:09:45.797Z,100.00
2023-04-16T06:12:12.511Z,100.00
2023-04-16T06:14:38.968Z,100.00
2023-04-16T06:17:05.475Z,100.00
2023-04-16T06:19:31.908Z,100.00
2023-04-16T06:21:58.424Z,100.00
2023-04-16T06:24:24.935Z,100.00
2023-04-16T06:26:51.485Z,100.00
2023-04-16T06:29:17.999Z,100.00
2023-04-16T06:31:44.595Z,100.00
2023-04-16T06:34:11.094Z,100.00
2023-04-16T06:36:37.716Z,100.00
2023-04-16T06:39:04.239Z,100.00
2023-04-16T06:41:30.968Z,100.00
2023-04-16T06:43:57.436Z,100.00
2023-04-16T06:46:24.008Z,100.00
2023-04-16T06:48:50.584Z,100.00
2023-04-16T06:51:17.085Z,100.00
2023-04-16T06:53:43.580Z,100.00
2023-04-16T06:56:10.085Z,100.00
2023-04-16T06:58:36.562Z,100.00
2023-04-16T07:01:03.108Z,100.00
2023-04-16T07:03:29.748Z,100.00
2023-04-16T07:05:56.862Z,100.00
2023-04-16T07:08:23.484Z,100.00
2023-04-16T07:10:50.027Z,100.00
2023-04-16T07:13:18.471Z,100.00
2023-04-16T07:15:44.939Z,100.00
2023-04-16T07:18:11.454Z,100.00
2023-04-16T07:20:37.960Z,100.00
2023-04-16T07:23:04.564Z,100.00
2023-04-16T07:25:30.967Z,100.00
2023-04-16T07:27:57.473Z,100.00
2023-04-16T07:30:24.168Z,100.00
2023-04-16T07:32:51.454Z,100.00
2023-04-16T07:35:18.035Z,100.00
2023-04-16T07:37:44.986Z,100.00
2023-04-16T07:40:11.977Z,100.00
2023-04-16T07:42:38.439Z,100.00
2023-04-16T07:45:05.482Z,100.00
2023-04-16T07:47:32.706Z,100.00
2023-04-16T07:49:59.162Z,100.00
2023-04-16T07:52:26.596Z,100.00
2023-04-16T07:54:53.244Z,100.00
2023-04-16T07:57:19.744Z,100.00
2023-04-16T07:59:46.201Z,100.00
2023-04-16T08:02:15.076Z,100.00
2023-04-16T08:04:42.867Z,100.00
2023-04-16T08:07:09.616Z,100.00
2023-04-16T08:09:36.418Z,100.00
2023-04-16T08:12:03.631Z,100.00
2023-04-16T08:14:30.749Z,100.00
2023-04-16T08:16:57.473Z,100.00
2023-04-16T08:19:23.988Z,100.00
2023-04-16T08:21:50.739Z,100.00
2023-04-16T08:24:17.210Z,100.00
2023-04-16T08:26:43.659Z,100.00
2023-04-16T08:29:10.162Z,100.00
2023-04-16T08:31:36.865Z,100.00
2023-04-16T08:34:03.363Z,100.00
2023-04-16T08:36:29.784Z,100.00
2023-04-16T08:38:56.349Z,100.00
2023-04-16T08:41:24.737Z,100.00
2023-04-16T08:43:55.847Z,100.00
2023-04-16T08:46:26.394Z,100.00
2023-04-16T08:48:58.966Z,100.00
2023-04-16T08:51:28.462Z,100.00
2023-04-16T08:54:02.673Z,100.00
2023-04-16T08:56:31.229Z,100.00
2023-04-16T08:58:58.530Z,100.00
2023-04-16T09:01:26.805Z,100.00
2023-04-16T09:03:54.109Z,100.00
2023-04-16T09:06:20.822Z,100.00
2023-04-16T09:08:48.103Z,100.00
2023-04-16T09:11:17.975Z,100.00
2023-04-16T09:13:45.957Z,100.00
2023-04-16T09:16:13.782Z,100.00
2023-04-16T09:18:41.239Z,100.00
2023-04-16T09:21:10.946Z,100.00
2023-04-16T09:23:41.361Z,100.00
2023-04-16T09:26:07.778Z,100.00
2023-04-16T09:28:48.836Z,100.00
2023-04-16T09:31:17.107Z,100.00
2023-04-16T09:34:00.317Z,100.00
2023-04-16T09:36:27.787Z,100.00
2023-04-16T09:38:56.950Z,99.82
2023-04-16T09:41:29.240Z,99.97
2023-04-16T09:43:59.719Z,99.80
2023-04-16T09:46:43.655Z,99.54
2023-04-16T09:49:17.305Z,99.23
2023-04-16T09:51:50.932Z,99.19
2023-04-16T09:54:17.398Z,98.64
2023-04-16T09:56:45.861Z,98.57
2023-04-16T09:59:19.253Z,98.60
2023-04-16T10:02:14.698Z,98.21
2023-04-16T10:04:52.058Z,98.56
2023-04-16T10:07:19.585Z,98.55
2023-04-16T10:09:48.490Z,98.06
2023-04-16T10:12:16.069Z,98.01
2023-04-16T10:14:42.853Z,97.86
2023-04-16T10:17:09.850Z,97.85
2023-04-16T10:19:36.987Z,98.01
2023-04-16T10:22:04.329Z,97.82
2023-04-16T10:24:32.396Z,97.43
2023-04-16T10:26:59.409Z,96.89
2023-04-16T10:29:28.128Z,96.59
2023-04-16T10:31:56.574Z,96.74
2023-04-16T10:34:24.290Z,96.49
2023-04-16T10:36:52.878Z,96.71
2023-04-16T10:39:22.476Z,96.63
2023-04-16T10:41:49.627Z,96.38
2023-04-16T10:44:18.436Z,96.38
2023-04-16T10:46:50.458Z,96.64
2023-04-16T10:49:23.563Z,95.96
2023-04-16T10:51:59.983Z,95.93
2023-04-16T10:54:28.444Z,96.04
2023-04-16T10:57:04.256Z,95.49
2023-04-16T10:59:34.829Z,95.74
2023-04-16T11:02:06.568Z,95.35
2023-04-16T11:04:37.446Z,95.51
2023-04-16T11:07:19.242Z,95.12
2023-04-16T11:09:56.482Z,94.90
2023-04-16T11:12:27.203Z,94.40
2023-04-16T11:14:58.111Z,94.25
2023-04-16T11:17:29.351Z,94.72
2023-04-16T11:19:56.489Z,94.05
2023-04-16T11:22:27.007Z,92.99
2023-04-16T11:24:55.773Z,93.21
2023-04-16T11:27:26.324Z,92.56
2023-04-16T11:30:11.467Z,92.35
2023-04-16T11:32:38.764Z,92.63
2023-04-16T11:35:14.209Z,92.26
2023-04-16T11:37:41.931Z,92.16
2023-04-16T11:40:09.648Z,91.90
2023-04-16T11:42:37.533Z,91.82
2023-04-16T11:45:04.870Z,91.77
2023-04-16T11:47:31.780Z,92.15
2023-04-16T11:50:15.015Z,91.58
2023-04-16T11:52:41.498Z,91.89
2023-04-16T11:55:08.254Z,91.96
2023-04-16T11:57:34.680Z,91.71
2023-04-16T12:00:03.685Z,91.47
2023-04-16T12:02:46.085Z,91.49
2023-04-16T12:05:32.238Z,91.67
2023-04-16T12:08:00.613Z,91.68
2023-04-16T12:10:27.525Z,91.63
2023-04-16T12:12:54.122Z,91.21
2023-04-16T12:15:20.905Z,91.13
2023-04-16T12:17:47.762Z,90.81
2023-04-16T12:20:15.760Z,90.99
2023-04-16T12:22:47.830Z,90.45
2023-04-16T12:25:16.768Z,90.55
2023-04-16T12:27:46.335Z,89.89
2023-04-16T12:30:23.605Z,90.47
2023-04-16T12:32:52.459Z,90.06
2023-04-16T12:35:33.400Z,89.91
2023-04-16T12:38:00.504Z,89.85
2023-04-16T12:40:27.441Z,89.19
2023-04-16T12:42:53.931Z,89.45
2023-04-16T12:45:20.680Z,89.53
2023-04-16T12:47:47.363Z,89.33
2023-04-16T12:50:13.877Z,89.12
2023-04-16T12:52:40.392Z,89.32
2023-04-16T12:55:07.212Z,89.27
2023-04-16T12:57:33.672Z,89.31
2023-04-16T13:00:00.216Z,89.28
2023-04-16T13:02:27.818Z,88.98
2023-04-16T13:04:54.821Z,88.64
2023-04-16T13:07:21.437Z,88.59
2023-04-16T13:09:47.956Z,89.00
2023-04-16T13:12:14.441Z,88.53
2023-04-16T13:14:43.360Z,88.22
2023-04-16T13:17:11.466Z,88.42
2023-04-16T13:19:37.955Z,88.43
2023-04-16T13:22:04.458Z,87.77
2023-04-16T13:24:30.869Z,87.92
2023-04-16T13:26:57.402Z,87.97
2023-04-16T13:29:23.881Z,87.88
2023-04-16T13:31:50.418Z,87.09
2023-04-16T13:34:17.028Z,87.69
2023-04-16T13:36:43.567Z,87.80
2023-04-16T13:39:12.772Z,87.77
2023-04-16T13:41:39.479Z,87.21
2023-04-16T13:44:06.818Z,86.98
2023-04-16T13:46:33.820Z,86.81
2023-04-16T13:49:00.517Z,86.71
2023-04-16T13:51:29.681Z,87.18
2023-04-16T13:53:56.308Z,86.21
2023-04-16T13:56:22.955Z,86.57
2023-04-16T13:58:49.653Z,85.97
2023-04-16T14:01:17.161Z,85.83
2023-04-16T14:03:43.860Z,85.73
2023-04-16T14:06:10.532Z,85.46
2023-04-16T14:08:38.225Z,85.35
2023-04-16T14:11:06.323Z,84.94
2023-04-16T14:13:32.907Z,85.34
2023-04-16T14:15:59.435Z,85.32
2023-04-16T14:18:25.885Z,84.62
2023-04-16T14:20:52.343Z,84.62
2023-04-16T14:23:18.761Z,84.76
2023-04-16T14:25:45.272Z,83.84
2023-04-16T14:28:12.984Z,83.89
2023-04-16T14:30:40.903Z,82.72
2023-04-16T14:33:07.428Z,82.43
2023-04-16T14:35:34.165Z,83.10
2023-04-16T14:38:47.320Z,81.69
2023-04-16T14:41:14.191Z,81.67
2023-04-16T14:43:43.645Z,82.14
2023-04-16T14:46:11.075Z,81.78
2023-04-16T14:48:46.975Z,82.42
2023-04-16T14:51:13.542Z,82.71
2023-04-16T14:53:40.864Z,82.59
2023-04-16T14:56:07.676Z,82.03
2023-04-16T14:58:37.252Z,81.25
2023-04-16T15:01:05.342Z,81.96
2023-04-16T15:03:32.725Z,81.05
2023-04-16T15:05:59.633Z,81.32
2023-04-16T15:08:29.257Z,81.45
2023-04-16T15:10:55.876Z,81.68
2023-04-16T15:13:22.459Z,81.00
2023-04-16T15:15:49.635Z,80.56
2023-04-16T15:18:16.708Z,80.46
2023-04-16T15:20:43.203Z,80.73
2023-04-16T15:23:09.614Z,80.48
2023-04-16T15:25:36.125Z,79.89
2023-04-16T15:28:02.754Z,80.05
2023-04-16T15:30:30.276Z,79.38
2023-04-16T15:32:56.793Z,79.23
2023-04-16T15:35:26.137Z,79.59
2023-04-16T15:37:52.764Z,80.03
2023-04-16T15:40:20.509Z,79.94
2023-04-16T15:42:46.976Z,80.51
2023-04-16T15:45:13.454Z,80.67
2023-04-16T15:47:41.624Z,80.44
2023-04-16T15:50:08.651Z,80.80
2023-04-16T15:52:36.261Z,81.14
2023-04-16T15:55:04.361Z,80.64
2023-04-16T15:57:31.359Z,80.94
2023-04-16T16:00:06.575Z,81.36
2023-04-16T16:02:34.138Z,81.73
2023-04-16T16:05:00.935Z,81.83
2023-04-16T16:07:27.596Z,81.88
2023-04-16T16:09:54.137Z,82.01
2023-04-16T16:12:20.667Z,81.99
2023-04-16T16:14:47.683Z,81.99
2023-04-16T16:17:14.178Z,82.27
2023-04-16T16:19:40.677Z,82.19
2023-04-16T16:22:07.732Z,82.27
2023-04-16T16:24:34.175Z,82.55
2023-04-16T16:27:01.621Z,82.96
2023-04-16T16:29:28.190Z,83.34
2023-04-16T16:31:54.667Z,82.78
2023-04-16T16:34:21.617Z,82.71
2023-04-16T16:36:48.580Z,83.00
2023-04-16T16:39:15.010Z,83.21
2023-04-16T16:41:42.122Z,83.14
2023-04-16T16:44:09.111Z,83.29
2023-04-16T16:46:44.600Z,82.94
2023-04-16T16:49:15.594Z,82.73
2023-04-16T16:51:42.317Z,82.60
2023-04-16T16:54:08.782Z,82.76
2023-04-16T16:56:35.313Z,83.14
2023-04-16T16:59:02.161Z,83.72
2023-04-16T17:01:29.676Z,84.48
2023-04-16T17:03:56.511Z,85.37
2023-04-16T17:06:23.969Z,84.77
2023-04-16T17:08:50.506Z,85.43
2023-04-16T17:11:17.190Z,85.71
2023-04-16T17:13:43.710Z,85.72
2023-04-16T17:16:10.337Z,85.41
2023-04-16T17:18:37.169Z,86.03
2023-04-16T17:21:03.696Z,85.77
2023-04-16T17:23:30.154Z,86.44
2023-04-16T17:25:59.109Z,86.61
2023-04-16T17:28:27.406Z,86.93
2023-04-16T17:30:54.171Z,87.11
2023-04-16T17:33:20.733Z,87.40
2023-04-16T17:35:47.364Z,87.40
2023-04-16T17:38:13.845Z,87.50
2023-04-16T17:40:40.364Z,88.10
2023-04-16T17:43:06.820Z,88.12
2023-04-16T17:45:33.591Z,87.62
2023-04-16T17:48:00.771Z,87.85
2023-04-16T17:50:27.970Z,88.00
2023-04-16T17:52:54.406Z,87.94
2023-04-16T17:55:21.073Z,88.13
2023-04-16T17:57:47.533Z,88.31
2023-04-16T18:00:14.482Z,88.89
2023-04-16T18:02:41.400Z,88.82
2023-04-16T18:05:08.899Z,89.16
2023-04-16T18:07:36.402Z,88.46
2023-04-16T18:10:02.949Z,89.18
2023-04-16T18:12:29.418Z,89.21
2023-04-16T18:14:55.869Z,89.26
2023-04-16T18:17:22.790Z,89.71
2023-04-16T18:19:49.324Z,90.27
2023-04-16T18:22:15.836Z,90.53
2023-04-16T18:24:42.421Z,90.90
2023-04-16T18:27:08.974Z,91.08
2023-04-16T18:29:35.571Z,91.12
2023-04-16T18:32:04.285Z,91.47
2023-04-16T18:34:31.686Z,91.76
2023-04-16T18:36:58.237Z,91.68
2023-04-16T18:39:24.806Z,92.15
2023-04-16T18:41:51.187Z,92.36
2023-04-16T18:44:19.537Z,92.68
2023-04-16T18:46:46.407Z,93.38
2023-04-16T18:49:13.468Z,93.23
2023-04-16T18:51:41.892Z,93.20
2023-04-16T18:54:08.393Z,93.45
2023-04-16T18:56:34.958Z,93.63
2023-04-16T18:59:01.730Z,93.60
2023-04-16T19:01:28.392Z,94.09
2023-04-16T19:03:54.926Z,94.53
2023-04-16T19:06:21.420Z,94.49
2023-04-16T19:08:47.883Z,94.80
2023-04-16T19:11:14.443Z,94.75
2023-04-16T19:13:40.870Z,95.19
2023-04-16T19:16:11.284Z,94.89
2023-04-16T19:18:38.996Z,95.25
2023-04-16T19:21:06.934Z,95.56
2023-04-16T19:23:33.415Z,95.87
2023-04-16T19:26:01.363Z,96.07
2023-04-16T19:28:28.351Z,95.88
2023-04-16T19:30:55.232Z,96.34
2023-04-16T19:33:21.769Z,96.09
2023-04-16T19:35:48.263Z,96.24
2023-04-16T19:38:14.784Z,96.35
2023-04-16T19:40:45.343Z,96.41
2023-04-16T19:43:12.227Z,96.19
2023-04-16T19:45:52.432Z,96.18
2023-04-16T19:48:22.180Z,96.50
2023-04-16T19:50:48.812Z,96.36
2023-04-16T19:53:17.168Z,96.66
2023-04-16T19:55:43.780Z,96.73
2023-04-16T19:58:10.535Z,96.91
2023-04-16T20:00:38.478Z,97.01
2023-04-16T20:03:05.539Z,97.38
2023-04-16T20:05:31.991Z,97.47
2023-04-16T20:07:58.503Z,97.80
2023-04-16T20:10:25.343Z,97.73
2023-04-16T20:12:52.086Z,98.30
2023-04-16T20:15:19.087Z,98.48
2023-04-16T20:17:45.769Z,98.45
2023-04-16T20:20:12.467Z,98.57
2023-04-16T20:22:39.819Z,98.58
2023-04-16T20:25:07.567Z,98.46
2023-04-16T20:27:34.768Z,98.60
2023-04-16T20:30:02.362Z,98.84
2023-04-16T20:32:28.863Z,98.89
2023-04-16T20:34:55.670Z,98.78
2023-04-16T20:37:22.476Z,99.11
2023-04-16T20:39:50.154Z,99.04
2023-04-16T20:42:16.700Z,99.20
2023-04-16T20:44:50.112Z,98.90
2023-04-16T20:47:17.209Z,98.90
2023-04-16T20:49:47.364Z,99.21
2023-04-16T20:52:14.719Z,99.36
2023-04-16T20:54:41.521Z,99.08
2023-04-16T20:57:08.079Z,98.95
2023-04-16T20:59:34.691Z,98.99
2023-04-16T21:02:01.429Z,99.45
2023-04-16T21:04:28.136Z,99.59
2023-04-16T21:06:54.913Z,99.89
2023-04-16T21:09:21.869Z,100.00
2023-04-16T21:11:48.472Z,100.00
2023-04-16T21:14:15.410Z,100.00
2023-04-16T21:16:41.887Z,100.00
2023-04-16T21:19:08.842Z,100.00
2023-04-16T21:21:35.618Z,100.00
2023-04-16T21:24:02.157Z,100.00
2023-04-16T21:26:28.726Z,100.00
2023-04-16T21:28:55.387Z,100.00
2023-04-16T21:31:22.036Z,100.00
2023-04-16T21:33:48.667Z,100.00
2023-04-16T21:36:15.448Z,100.00
2023-04-16T21:38:41.971Z,100.00
2023-04-16T21:41:08.505Z,100.00
2023-04-16T21:43:34.964Z,100.00
2023-04-16T21:46:01.473Z,100.00
2023-04-16T21:48:28.573Z,100.00
2023-04-16T21:50:59.731Z,100.00
2023-04-16T21:53:28.073Z,100.00
2023-04-16T21:55:54.681Z,100.00
2023-04-16T21:58:21.107Z,100.00
2023-04-16T22:00:47.574Z,100.00
2023-04-16T22:03:14.455Z,100.00
2023-04-16T22:05:40.980Z,100.00
2023-04-16T22:08:23.216Z,100.00
2023-04-16T22:10:51.300Z,100.00
2023-04-16T22:13:18.012Z,100.00
2023-04-16T22:15:44.568Z,100.00
2023-04-16T22:18:11.384Z,100.00
2023-04-16T22:20:39.042Z,100.00
2023-04-16T22:23:06.671Z,100.00
2023-04-16T22:25:33.470Z,100.00
2023-04-16T22:28:01.398Z,100.00
2023-04-16T22:30:28.088Z,100.00
2023-04-16T22:32:54.621Z,100.00
2023-04-16T22:35:21.233Z,100.00
2023-04-16T22:37:47.739Z,100.00
2023-04-16T22:40:14.777Z,100.00
2023-04-16T22:42:41.551Z,100.00
2023-04-16T22:45:08.773Z,100.00
2023-04-16T22:47:35.293Z,100.00
2023-04-16T22:50:01.865Z,100.00
2023-04-16T22:52:28.416Z,100.00
2023-04-16T22:54:54.854Z,100.00
2023-04-16T22:57:24.732Z,100.00
2023-04-16T22:59:52.451Z,100.00
2023-04-16T23:02:20.156Z,100.00
2023-04-16T23:04:47.671Z,100.00
2023-04-16T23:07:14.846Z,100.00
2023-04-16T23:09:41.352Z,100.00
2023-04-16T23:12:08.171Z,100.00
2023-04-16T23:14:35.168Z,100.00
2023-04-16T23:17:01.819Z,100.00
2023-04-16T23:19:28.888Z,100.00
2023-04-16T23:21:55.468Z,100.00
2023-04-16T23:24:21.972Z,100.00
2023-04-16T23:26:48.613Z,100.00
2023-04-16T23:29:15.101Z,100.00
2023-04-16T23:31:41.671Z,100.00
2023-04-16T23:34:08.153Z,100.00
2023-04-16T23:36:34.715Z,100.00
2023-04-16T23:39:01.220Z,100.00
2023-04-16T23:41:27.712Z,100.00
2023-04-16T23:43:54.241Z,100.00
2023-04-16T23:46:20.862Z,100.00
2023-04-16T23:48:47.356Z,100.00
2023-04-16T23:51:13.859Z,100.00
2023-04-16T23:53:40.772Z,100.00
2023-04-16T23:56:10.946Z,100.00
2023-04-16T23:58:37.578Z,100.00
